createdAt,value
2018-08-20T00:01:26.373Z,45.80
2018-08-20T00:03:55.477Z,45.50
2018-08-20T00:06:24.306Z,45.60
2018-08-20T00:08:53.115Z,45.10
2018-08-20T00:11:22.384Z,44.80
2018-08-20T00:13:51.197Z,44.90
2018-08-20T00:16:20.014Z,44.90
2018-08-20T00:18:48.863Z,44.80
2018-08-20T00:21:17.678Z,44.70
2018-08-20T00:23:46.493Z,44.80
2018-08-20T00:26:15.799Z,44.60
2018-08-20T00:28:44.699Z,44.50
2018-08-20T00:31:14.925Z,44.40
2018-08-20T00:33:50.450Z,44.10
2018-08-20T00:36:19.279Z,44.10
2018-08-20T00:38:48.078Z,44.10
2018-08-20T00:41:23.680Z,44.00
2018-08-20T00:43:52.473Z,43.80
2018-08-20T00:46:21.327Z,43.40
2018-08-20T00:48:50.164Z,43.40
2018-08-20T00:51:19.038Z,43.20
2018-08-20T00:53:47.870Z,43.10
2018-08-20T00:56:16.691Z,43.10
2018-08-20T00:58:45.509Z,43.00
2018-08-20T01:01:14.405Z,42.80
2018-08-20T01:03:43.889Z,43.30
2018-08-20T01:06:12.708Z,42.70
2018-08-20T01:08:41.535Z,43.20
2018-08-20T01:11:10.347Z,42.60
2018-08-20T01:13:39.969Z,42.50
2018-08-20T01:16:08.842Z,43.10
2018-08-20T01:18:37.663Z,42.50
2018-08-20T01:21:06.465Z,42.50
2018-08-20T01:23:35.258Z,42.50
2018-08-20T01:26:04.507Z,42.60
2018-08-20T01:28:33.294Z,42.70
2018-08-20T01:31:02.107Z,42.60
2018-08-20T01:33:31.000Z,42.70
2018-08-20T01:35:59.810Z,42.70
2018-08-20T01:38:28.652Z,42.80
2018-08-20T01:40:57.484Z,42.80
2018-08-20T01:43:26.284Z,42.90
2018-08-20T01:45:55.148Z,43.00
2018-08-20T01:48:24.253Z,43.10
2018-08-20T01:50:53.092Z,43.10
2018-08-20T01:53:21.935Z,43.20
2018-08-20T01:55:50.761Z,43.40
2018-08-20T01:58:19.606Z,43.30
2018-08-20T02:00:48.401Z,43.50
2018-08-20T02:03:17.262Z,43.60
2018-08-20T02:05:46.061Z,43.60
2018-08-20T02:08:14.879Z,43.70
2018-08-20T02:10:43.935Z,43.70
2018-08-20T02:13:12.759Z,43.80
2018-08-20T02:15:42.025Z,43.90
2018-08-20T02:18:11.258Z,44.00
2018-08-20T02:20:40.059Z,44.00
2018-08-20T02:23:08.904Z,44.00
2018-08-20T02:25:37.738Z,44.10
2018-08-20T02:28:06.794Z,44.10
2018-08-20T02:30:35.579Z,44.30
2018-08-20T02:33:04.906Z,44.30
2018-08-20T02:35:33.704Z,44.30
2018-08-20T02:38:02.499Z,44.40
2018-08-20T02:40:31.335Z,44.40
2018-08-20T02:43:00.161Z,44.40
2018-08-20T02:45:29.053Z,44.70
2018-08-20T02:47:57.883Z,44.70
2018-08-20T02:50:26.717Z,44.80
2018-08-20T02:52:55.541Z,44.90
2018-08-20T02:55:24.647Z,45.10
2018-08-20T02:57:53.479Z,45.10
2018-08-20T03:00:22.332Z,45.30
2018-08-20T03:02:51.178Z,45.40
2018-08-20T03:05:19.967Z,45.50
2018-08-20T03:07:48.762Z,45.60
2018-08-20T03:10:17.588Z,45.70
2018-08-20T03:12:46.413Z,45.90
2018-08-20T03:15:15.229Z,46.00
2018-08-20T03:17:44.951Z,46.10
2018-08-20T03:20:13.803Z,46.20
2018-08-20T03:22:42.613Z,46.40
2018-08-20T03:25:11.512Z,46.40
2018-08-20T03:27:40.322Z,46.40
2018-08-20T03:30:10.081Z,46.70
2018-08-20T03:32:39.559Z,46.80
2018-08-20T03:35:10.697Z,46.80
2018-08-20T03:37:39.555Z,47.10
2018-08-20T03:40:12.005Z,47.10
2018-08-20T03:42:40.890Z,47.20
2018-08-20T03:45:10.530Z,47.20
2018-08-20T03:47:39.567Z,47.30
2018-08-20T03:50:11.965Z,47.40
2018-08-20T03:52:40.871Z,47.40
2018-08-20T03:55:09.732Z,47.50
2018-08-20T03:57:38.961Z,47.60
2018-08-20T04:00:10.537Z,47.50
2018-08-20T04:02:39.366Z,47.80
2018-08-20T04:05:09.114Z,47.90
2018-08-20T04:07:37.801Z,48.00
2018-08-20T04:10:08.242Z,48.00
2018-08-20T04:12:37.043Z,48.10
2018-08-20T04:15:07.047Z,48.20
2018-08-20T04:17:35.868Z,48.30
2018-08-20T04:20:05.091Z,48.30
2018-08-20T04:22:34.651Z,48.50
2018-08-20T04:25:03.447Z,48.50
2018-08-20T04:27:32.230Z,48.70
2018-08-20T04:30:01.099Z,48.60
2018-08-20T04:32:30.814Z,48.70
2018-08-20T04:34:59.689Z,48.70
2018-08-20T04:37:28.554Z,49.40
2018-08-20T04:39:57.379Z,48.90
2018-08-20T04:42:26.215Z,48.90
2018-08-20T04:44:55.796Z,48.90
2018-08-20T04:47:24.630Z,49.00
2018-08-20T04:49:53.455Z,48.90
2018-08-20T04:52:22.265Z,49.00
2018-08-20T04:54:51.105Z,49.10
2018-08-20T04:57:19.926Z,49.00
2018-08-20T04:59:48.827Z,49.00
2018-08-20T05:02:17.630Z,49.10
2018-08-20T05:04:46.459Z,49.10
2018-08-20T05:07:15.753Z,49.00
2018-08-20T05:09:44.559Z,49.00
2018-08-20T05:12:13.403Z,49.00
2018-08-20T05:14:42.210Z,49.10
2018-08-20T05:17:11.943Z,49.70
2018-08-20T05:19:40.763Z,49.00
2018-08-20T05:22:09.988Z,49.00
2018-08-20T05:24:38.779Z,49.10
2018-08-20T05:27:07.627Z,48.90
2018-08-20T05:29:36.972Z,49.10
2018-08-20T05:32:06.096Z,48.90
2018-08-20T05:34:34.937Z,49.00
2018-08-20T05:37:04.147Z,48.80
2018-08-20T05:39:32.968Z,48.60
2018-08-20T05:42:01.813Z,48.50
2018-08-20T05:44:37.280Z,48.40
2018-08-20T05:47:06.426Z,48.10
2018-08-20T05:49:35.235Z,48.00
2018-08-20T05:52:04.558Z,47.80
2018-08-20T05:54:33.352Z,47.70
2018-08-20T05:57:02.185Z,47.60
2018-08-20T05:59:31.019Z,48.00
2018-08-20T06:01:59.858Z,47.40
2018-08-20T06:04:29.607Z,47.40
2018-08-20T06:06:58.433Z,47.40
2018-08-20T06:09:27.890Z,47.20
2018-08-20T06:11:56.699Z,47.30
2018-08-20T06:14:25.914Z,47.20
2018-08-20T06:16:54.759Z,47.10
2018-08-20T06:19:23.578Z,47.00
2018-08-20T06:21:52.432Z,47.00
2018-08-20T06:24:22.183Z,46.80
2018-08-20T06:26:50.995Z,46.70
2018-08-20T06:29:19.818Z,46.40
2018-08-20T06:31:48.630Z,46.10
2018-08-20T06:34:17.425Z,45.90
2018-08-20T06:36:46.366Z,45.80
2018-08-20T06:39:15.206Z,45.50
2018-08-20T06:41:44.049Z,45.40
2018-08-20T06:44:12.935Z,45.20
2018-08-20T06:46:41.757Z,45.10
2018-08-20T06:49:10.924Z,45.00
2018-08-20T06:51:46.443Z,45.00
2018-08-20T06:54:15.291Z,44.80
2018-08-20T06:56:44.166Z,45.20
2018-08-20T06:59:13.524Z,44.70
2018-08-20T07:01:42.368Z,44.80
2018-08-20T07:04:11.193Z,44.80
2018-08-20T07:06:40.083Z,44.80
2018-08-20T07:09:08.908Z,44.90
2018-08-20T07:11:37.725Z,44.60
2018-08-20T07:14:06.571Z,45.20
2018-08-20T07:16:35.446Z,45.10
2018-08-20T07:19:04.255Z,45.20
2018-08-20T07:21:33.440Z,45.30
2018-08-20T07:24:02.236Z,45.30
2018-08-20T07:26:31.657Z,45.40
2018-08-20T07:29:00.506Z,45.40
2018-08-20T07:31:29.305Z,45.50
2018-08-20T07:33:58.104Z,45.50
2018-08-20T07:36:26.940Z,45.50
2018-08-20T07:38:55.842Z,45.60
2018-08-20T07:41:24.698Z,45.50
2018-08-20T07:43:54.164Z,45.60
2018-08-20T07:46:22.972Z,45.80
2018-08-20T07:48:51.759Z,45.80
2018-08-20T07:51:20.563Z,45.80
2018-08-20T07:53:49.369Z,45.80
2018-08-20T07:56:18.174Z,45.80
2018-08-20T07:58:47.000Z,45.90
2018-08-20T08:01:15.829Z,45.80
2018-08-20T08:03:44.625Z,45.80
2018-08-20T08:06:13.986Z,45.70
2018-08-20T08:08:42.823Z,45.50
2018-08-20T08:11:11.595Z,45.70
2018-08-20T08:13:40.404Z,45.60
2018-08-20T08:16:09.275Z,45.40
2018-08-20T08:18:38.100Z,45.20
2018-08-20T08:21:06.925Z,45.50
2018-08-20T08:23:35.843Z,45.20
2018-08-20T08:26:04.647Z,45.20
2018-08-20T08:28:34.109Z,45.20
2018-08-20T08:31:02.905Z,45.20
2018-08-20T08:33:31.726Z,45.20
2018-08-20T08:36:00.542Z,45.80
2018-08-20T08:38:29.358Z,45.20
2018-08-20T08:40:58.163Z,45.20
2018-08-20T08:43:27.011Z,45.20
2018-08-20T08:45:55.843Z,45.30
2018-08-20T08:48:24.638Z,45.00
2018-08-20T08:50:54.127Z,45.00
2018-08-20T08:53:22.930Z,45.00
2018-08-20T08:55:51.733Z,45.60
2018-08-20T08:58:20.544Z,45.10
2018-08-20T09:00:49.401Z,45.30
2018-08-20T09:03:25.062Z,45.30
2018-08-20T09:05:53.864Z,45.50
2018-08-20T09:08:22.663Z,46.10
2018-08-20T09:10:51.766Z,45.50
2018-08-20T09:13:20.584Z,45.20
2018-08-20T09:15:49.464Z,45.20
2018-08-20T09:18:18.377Z,45.20
2018-08-20T09:20:47.176Z,45.20
2018-08-20T09:23:16.018Z,45.30
2018-08-20T09:25:44.922Z,45.10
2018-08-20T09:28:13.746Z,45.00
2018-08-20T09:30:42.867Z,44.90
2018-08-20T09:33:12.122Z,44.80
2018-08-20T09:35:40.959Z,44.60
2018-08-20T09:38:09.906Z,44.50
2018-08-20T09:40:38.698Z,44.40
2018-08-20T09:43:08.161Z,44.40
2018-08-20T09:45:36.987Z,44.30
2018-08-20T09:48:05.833Z,44.30
2018-08-20T09:50:34.658Z,44.70
2018-08-20T09:53:03.450Z,43.90
2018-08-20T09:55:32.664Z,43.90
2018-08-20T09:58:01.458Z,43.80
2018-08-20T10:00:35.812Z,43.70
2018-08-20T10:03:04.610Z,44.20
2018-08-20T10:05:33.438Z,43.80
2018-08-20T10:08:02.271Z,43.70
2018-08-20T10:10:31.087Z,43.70
2018-08-20T10:12:59.910Z,44.00
2018-08-20T10:15:29.116Z,44.00
2018-08-20T10:17:57.959Z,44.20
2018-08-20T10:20:26.791Z,44.70
2018-08-20T10:22:55.630Z,44.40
2018-08-20T10:25:24.464Z,44.50
2018-08-20T10:27:53.311Z,44.60
2018-08-20T10:30:22.141Z,44.50
2018-08-20T10:32:51.447Z,44.40
2018-08-20T10:35:23.344Z,44.50
2018-08-20T10:37:52.282Z,44.50
2018-08-20T10:40:21.043Z,44.50
2018-08-20T10:42:49.878Z,44.50
2018-08-20T10:45:19.901Z,44.10
2018-08-20T10:47:49.819Z,44.20
2018-08-20T10:50:20.053Z,44.00
2018-08-20T10:52:50.158Z,44.10
2018-08-20T10:55:19.081Z,44.10
2018-08-20T10:57:48.043Z,44.10
2018-08-20T11:00:17.251Z,44.00
2018-08-20T11:02:46.116Z,44.10
2018-08-20T11:05:17.269Z,43.80
2018-08-20T11:07:46.109Z,43.70
2018-08-20T11:10:14.999Z,43.20
2018-08-20T11:12:43.749Z,43.00
2018-08-20T11:15:12.948Z,43.20
2018-08-20T11:17:41.778Z,43.10
2018-08-20T11:20:17.381Z,42.80
2018-08-20T11:22:46.218Z,42.50
2018-08-20T11:25:16.551Z,42.20
2018-08-20T11:27:45.383Z,42.00
2018-08-20T11:30:15.385Z,42.00
2018-08-20T11:32:44.159Z,42.10
2018-08-20T11:35:13.396Z,42.30
2018-08-20T11:37:42.382Z,42.40
2018-08-20T11:40:11.242Z,42.40
2018-08-20T11:42:40.480Z,42.50
2018-08-20T11:45:12.535Z,42.50
2018-08-20T11:47:41.450Z,43.30
2018-08-20T11:50:10.727Z,42.80
2018-08-20T11:52:40.169Z,42.80
2018-08-20T11:55:09.844Z,42.90
2018-08-20T11:57:38.680Z,43.20
2018-08-20T12:00:09.643Z,43.70
2018-08-20T12:02:38.976Z,43.30
2018-08-20T12:05:09.541Z,43.30
2018-08-20T12:07:38.393Z,43.40
2018-08-20T12:10:09.526Z,43.50
2018-08-20T12:12:38.801Z,43.10
2018-08-20T12:15:10.959Z,43.80
2018-08-20T12:17:40.290Z,44.00
2018-08-20T12:20:09.823Z,44.20
2018-08-20T12:22:40.068Z,44.40
2018-08-20T12:25:11.653Z,45.20
2018-08-20T12:27:40.604Z,46.50
2018-08-20T12:30:10.953Z,45.10
2018-08-20T12:32:39.825Z,45.90
2018-08-20T12:35:09.621Z,45.40
2018-08-20T12:37:39.722Z,45.20
2018-08-20T12:40:08.757Z,45.30
2018-08-20T12:42:37.526Z,45.40
2018-08-20T12:45:08.048Z,45.40
2018-08-20T12:47:37.583Z,45.60
2018-08-20T12:50:07.548Z,45.50
2018-08-20T12:52:36.663Z,45.40
2018-08-20T12:55:05.823Z,45.40
2018-08-20T12:57:34.657Z,45.40
2018-08-20T13:00:03.519Z,45.30
2018-08-20T13:02:33.430Z,45.20
2018-08-20T13:05:03.279Z,45.10
2018-08-20T13:07:33.169Z,45.20
2018-08-20T13:10:01.986Z,45.20
2018-08-20T13:12:30.825Z,45.30
2018-08-20T13:14:59.745Z,45.40
2018-08-20T13:17:28.551Z,45.30
2018-08-20T13:19:57.345Z,45.40
2018-08-20T13:22:26.141Z,45.40
2018-08-20T13:24:54.946Z,45.40
2018-08-20T13:27:23.780Z,45.60
2018-08-20T13:29:53.118Z,45.50
2018-08-20T13:32:21.926Z,45.70
2018-08-20T13:34:50.725Z,45.70
2018-08-20T13:37:19.672Z,45.80
2018-08-20T13:39:48.871Z,45.80
2018-08-20T13:42:17.707Z,45.90
2018-08-20T13:44:46.558Z,45.80
2018-08-20T13:47:22.185Z,45.80
2018-08-20T13:49:52.168Z,46.00
2018-08-20T13:52:21.194Z,46.20
2018-08-20T13:54:50.043Z,47.40
2018-08-20T13:57:18.867Z,47.80
2018-08-20T13:59:47.662Z,47.30
2018-08-20T14:02:16.476Z,47.40
2018-08-20T14:04:45.304Z,47.00
2018-08-20T14:07:14.133Z,46.80
2018-08-20T14:09:42.996Z,46.70
2018-08-20T14:12:12.325Z,46.80
2018-08-20T14:14:41.126Z,46.80
2018-08-20T14:17:09.967Z,46.50
2018-08-20T14:19:38.998Z,46.40
2018-08-20T14:22:07.829Z,46.10
2018-08-20T14:24:36.657Z,45.90
2018-08-20T14:27:05.565Z,46.00
2018-08-20T14:29:34.355Z,45.70
2018-08-20T14:32:03.270Z,45.60
2018-08-20T14:34:32.751Z,45.50
2018-08-20T14:37:01.597Z,45.50
2018-08-20T14:39:30.415Z,45.40
2018-08-20T14:42:00.343Z,45.60
2018-08-20T14:44:29.281Z,45.80
2018-08-20T14:46:58.102Z,45.80
2018-08-20T14:49:26.928Z,45.50
2018-08-20T14:51:55.737Z,45.90
2018-08-20T14:54:24.615Z,45.50
2018-08-20T14:56:55.370Z,45.50
2018-08-20T14:59:24.223Z,45.70
2018-08-20T15:01:53.074Z,45.70
2018-08-20T15:04:21.931Z,45.90
2018-08-20T15:07:01.902Z,46.00
2018-08-20T15:09:31.396Z,46.10
2018-08-20T15:12:00.460Z,46.20
2018-08-20T15:14:29.328Z,46.40
2018-08-20T15:16:58.451Z,46.50
2018-08-20T15:19:27.289Z,46.60
2018-08-20T15:21:56.120Z,46.60
2018-08-20T15:24:24.915Z,46.80
2018-08-20T15:26:53.727Z,46.90
2018-08-20T15:29:22.648Z,47.00
2018-08-20T15:31:51.521Z,47.20
2018-08-20T15:34:20.316Z,47.10
2018-08-20T15:36:49.140Z,47.00
2018-08-20T15:39:18.269Z,47.10
2018-08-20T15:41:47.085Z,47.10
2018-08-20T15:44:16.174Z,47.20
2018-08-20T15:46:45.005Z,47.20
2018-08-20T15:49:13.811Z,47.20
2018-08-20T15:51:42.618Z,47.20
2018-08-20T15:54:11.454Z,47.20
2018-08-20T15:56:40.265Z,47.20
2018-08-20T15:59:09.070Z,47.10
2018-08-20T16:01:38.587Z,47.10
2018-08-20T16:04:07.396Z,47.60
2018-08-20T16:06:36.241Z,46.50
2018-08-20T16:09:07.787Z,47.30
2018-08-20T16:11:36.585Z,47.40
2018-08-20T16:14:05.426Z,47.60
2018-08-20T16:16:34.244Z,47.60
2018-08-20T16:19:03.066Z,47.80
2018-08-20T16:21:31.898Z,47.70
2018-08-20T16:24:00.975Z,48.40
2018-08-20T16:26:29.766Z,47.80
2018-08-20T16:28:58.555Z,47.90
2018-08-20T16:31:27.418Z,48.00
2018-08-20T16:33:56.219Z,48.10
2018-08-20T16:36:25.067Z,48.10
2018-08-20T16:38:53.872Z,48.20
2018-08-20T16:41:22.714Z,48.40
2018-08-20T16:43:51.521Z,48.50
2018-08-20T16:46:20.970Z,48.70
2018-08-20T16:48:49.773Z,48.60
2018-08-20T16:51:18.576Z,48.70
2018-08-20T16:53:47.376Z,49.20
2018-08-20T16:56:16.306Z,48.70
2018-08-20T16:58:45.118Z,48.80
2018-08-20T17:01:17.007Z,48.70
2018-08-20T17:03:45.899Z,48.80
2018-08-20T17:06:14.713Z,48.80
2018-08-20T17:08:45.302Z,48.80
2018-08-20T17:11:14.691Z,48.80
2018-08-20T17:13:43.507Z,48.90
2018-08-20T17:16:15.219Z,48.90
2018-08-20T17:18:44.031Z,49.00
2018-08-20T17:21:13.659Z,49.00
2018-08-20T17:23:42.730Z,49.10
2018-08-20T17:26:11.559Z,49.20
2018-08-20T17:28:40.355Z,49.20
2018-08-20T17:31:13.417Z,49.30
2018-08-20T17:33:42.141Z,49.40
2018-08-20T17:36:10.977Z,49.60
2018-08-20T17:38:39.887Z,49.60
2018-08-20T17:41:09.292Z,49.80
2018-08-20T17:43:38.087Z,49.90
2018-08-20T17:46:06.952Z,50.00
2018-08-20T17:48:36.159Z,50.10
2018-08-20T17:51:05.039Z,50.10
2018-08-20T17:53:51.163Z,50.30
2018-08-20T17:56:20.048Z,50.30
2018-08-20T17:58:57.379Z,50.30
2018-08-20T18:01:26.799Z,50.50
2018-08-20T18:03:55.720Z,50.40
2018-08-20T18:06:43.208Z,50.60
2018-08-20T18:09:12.094Z,50.50
2018-08-20T18:11:46.650Z,50.80
2018-08-20T18:14:15.499Z,51.40
2018-08-20T18:16:44.301Z,51.00
2018-08-20T18:19:13.551Z,51.10
2018-08-20T18:21:42.358Z,51.20
2018-08-20T18:24:17.520Z,51.20
2018-08-20T18:26:47.888Z,51.30
2018-08-20T18:29:16.691Z,51.30
2018-08-20T18:31:46.084Z,51.30
2018-08-20T18:34:14.865Z,51.40
2018-08-20T18:36:43.696Z,51.50
2018-08-20T18:39:19.964Z,51.50
2018-08-20T18:41:59.832Z,51.60
2018-08-20T18:44:28.668Z,51.60
2018-08-20T18:46:57.535Z,51.60
2018-08-20T18:49:26.906Z,51.70
2018-08-20T18:52:07.934Z,51.80
2018-08-20T18:54:40.441Z,51.80
2018-08-20T18:57:09.295Z,52.00
2018-08-20T18:59:39.202Z,52.00
2018-08-20T19:02:12.035Z,52.00
2018-08-20T19:04:46.970Z,52.00
2018-08-20T19:07:22.947Z,52.10
2018-08-20T19:09:51.745Z,52.10
2018-08-20T19:12:20.552Z,52.20
2018-08-20T19:14:49.355Z,52.20
2018-08-20T19:17:22.061Z,52.30
2018-08-20T19:19:51.019Z,52.40
2018-08-20T19:22:25.086Z,52.40
2018-08-20T19:24:54.403Z,52.70
2018-08-20T19:27:28.872Z,52.50
2018-08-20T19:29:58.071Z,52.70
2018-08-20T19:32:26.873Z,52.50
2018-08-20T19:34:55.717Z,52.60
2018-08-20T19:37:24.526Z,52.60
2018-08-20T19:39:53.334Z,52.60
2018-08-20T19:42:27.788Z,52.70
2018-08-20T19:44:56.619Z,52.70
2018-08-20T19:47:25.414Z,52.80
2018-08-20T19:49:54.610Z,52.90
2018-08-20T19:52:23.490Z,53.30
2018-08-20T19:54:56.448Z,53.10
2018-08-20T19:57:25.263Z,53.00
2018-08-20T19:59:54.117Z,53.00
2018-08-20T20:02:23.384Z,53.00
2018-08-20T20:04:52.207Z,53.10
2018-08-20T20:07:21.456Z,53.20
2018-08-20T20:09:50.396Z,53.20
2018-08-20T20:12:19.260Z,53.20
2018-08-20T20:14:48.650Z,53.10
2018-08-20T20:17:17.490Z,53.10
2018-08-20T20:19:46.290Z,53.10
2018-08-20T20:22:16.504Z,53.00
2018-08-20T20:24:45.898Z,53.10
2018-08-20T20:27:14.703Z,53.10
2018-08-20T20:29:43.515Z,53.10
2018-08-20T20:32:12.324Z,53.10
2018-08-20T20:34:41.142Z,53.10
2018-08-20T20:37:09.936Z,53.10
2018-08-20T20:39:45.043Z,53.20
2018-08-20T20:42:13.943Z,53.10
2018-08-20T20:44:42.742Z,53.20
2018-08-20T20:47:11.922Z,53.20
2018-08-20T20:49:40.671Z,53.40
2018-08-20T20:52:10.002Z,53.30
2018-08-20T20:54:38.835Z,53.40
2018-08-20T20:57:07.836Z,53.40
2018-08-20T20:59:36.738Z,53.50
2018-08-20T21:02:05.560Z,53.50
2018-08-20T21:04:36.099Z,53.60
2018-08-20T21:07:06.451Z,53.40
2018-08-20T21:09:40.748Z,53.70
2018-08-20T21:12:09.563Z,53.30
2018-08-20T21:14:38.365Z,53.30
2018-08-20T21:17:07.213Z,53.20
2018-08-20T21:19:36.348Z,53.10
2018-08-20T21:22:07.025Z,53.00
2018-08-20T21:24:35.833Z,53.00
2018-08-20T21:27:08.210Z,52.90
2018-08-20T21:29:37.012Z,52.80
2018-08-20T21:32:05.839Z,52.90
2018-08-20T21:34:38.749Z,52.90
2018-08-20T21:37:07.889Z,52.90
2018-08-20T21:39:37.040Z,52.80
2018-08-20T21:42:05.885Z,52.90
2018-08-20T21:44:34.817Z,52.90
2018-08-20T21:47:21.250Z,52.90
2018-08-20T21:49:50.087Z,53.00
2018-08-20T21:52:19.530Z,53.00
2018-08-20T21:54:48.339Z,53.20
2018-08-20T21:57:17.128Z,53.20
2018-08-20T22:00:03.612Z,53.20
2018-08-20T22:02:32.892Z,53.30
2018-08-20T22:05:01.730Z,53.40
2018-08-20T22:07:30.843Z,53.40
2018-08-20T22:09:59.734Z,53.50
2018-08-20T22:12:28.555Z,53.60
2018-08-20T22:14:57.355Z,53.70
2018-08-20T22:17:29.030Z,53.60
2018-08-20T22:19:57.874Z,54.10
2018-08-20T22:22:27.779Z,53.70
2018-08-20T22:25:00.801Z,53.80
2018-08-20T22:27:31.315Z,53.80
2018-08-20T22:30:02.186Z,54.00
2018-08-20T22:32:31.465Z,54.00
2018-08-20T22:35:00.335Z,53.90
2018-08-20T22:37:29.531Z,53.80
2018-08-20T22:40:03.739Z,53.70
2018-08-20T22:42:49.790Z,53.70
2018-08-20T22:45:20.099Z,53.50
2018-08-20T22:47:49.931Z,53.50
2018-08-20T22:50:19.415Z,53.70
2018-08-20T22:52:50.762Z,53.70
2018-08-20T22:55:20.834Z,53.80
2018-08-20T22:58:05.875Z,53.90
2018-08-20T23:00:34.710Z,54.00
2018-08-20T23:03:03.532Z,53.80
2018-08-20T23:05:33.392Z,54.10
2018-08-20T23:08:08.788Z,54.10
2018-08-20T23:10:40.843Z,54.20
2018-08-20T23:13:09.641Z,54.20
2018-08-20T23:15:38.438Z,54.00
2018-08-20T23:18:07.233Z,54.00
2018-08-20T23:20:36.030Z,54.30
2018-08-20T23:23:04.825Z,54.30
2018-08-20T23:25:34.015Z,54.40
2018-08-20T23:28:02.843Z,54.50
2018-08-20T23:30:31.775Z,54.20
2018-08-20T23:33:00.589Z,53.90
2018-08-20T23:35:29.402Z,53.30
2018-08-20T23:37:58.208Z,53.10
2018-08-20T23:40:27.946Z,53.10
2018-08-20T23:42:56.738Z,53.10
2018-08-20T23:45:25.530Z,53.10
2018-08-20T23:47:54.791Z,53.20
2018-08-20T23:50:23.620Z,53.20
2018-08-20T23:52:52.918Z,53.10
2018-08-20T23:55:21.705Z,53.20
2018-08-20T23:57:50.489Z,53.00
